createdAt,value
2022-12-18T00:02:48.749Z,13.80
2022-12-18T00:06:50.588Z,13.95
2022-12-18T00:10:52.576Z,13.52
2022-12-18T00:14:54.517Z,13.00
2022-12-18T00:18:57.606Z,9.07
2022-12-18T00:22:59.295Z,13.68
2022-12-18T00:27:00.976Z,13.07
2022-12-18T00:31:04.905Z,9.77
2022-12-18T00:35:08.212Z,12.02
2022-12-18T00:39:11.876Z,12.80
2022-12-18T00:43:13.497Z,12.27
2022-12-18T00:47:15.228Z,13.00
2022-12-18T00:51:16.794Z,10.07
2022-12-18T00:55:19.027Z,13.10
2022-12-18T00:59:22.263Z,13.50
2022-12-18T01:03:28.507Z,12.52
2022-12-18T01:07:30.152Z,10.52
2022-12-18T01:11:32.177Z,12.93
2022-12-18T01:15:33.764Z,12.38
2022-12-18T01:19:36.208Z,12.38
2022-12-18T01:23:40.121Z,12.13
2022-12-18T01:27:42.114Z,11.75
2022-12-18T01:31:43.835Z,12.75
2022-12-18T01:35:45.513Z,11.85
2022-12-18T01:39:47.169Z,13.45
2022-12-18T01:43:55.057Z,12.48
2022-12-18T01:48:04.294Z,12.10
2022-12-18T01:52:06.058Z,13.20
2022-12-18T01:56:08.290Z,13.48
2022-12-18T02:00:16.036Z,13.90
2022-12-18T02:04:26.370Z,13.85
2022-12-18T02:08:50.296Z,14.52
2022-12-18T02:13:17.960Z,13.80
2022-12-18T02:17:23.072Z,11.65
2022-12-18T02:21:44.509Z,12.80
2022-12-18T02:26:08.778Z,15.05
2022-12-18T02:30:11.618Z,14.75
2022-12-18T02:34:14.669Z,14.23
2022-12-18T02:38:18.051Z,14.35
2022-12-18T02:42:23.963Z,13.45
2022-12-18T02:46:37.608Z,15.63
2022-12-18T02:51:22.943Z,13.38
2022-12-18T02:55:58.524Z,14.95
2022-12-18T03:00:15.622Z,14.63
2022-12-18T03:04:27.276Z,16.23
2022-12-18T03:08:36.396Z,17.40
2022-12-18T03:12:44.045Z,17.60
2022-12-18T03:16:48.084Z,17.42
2022-12-18T03:20:52.647Z,15.27
2022-12-18T03:24:58.632Z,16.40
2022-12-18T03:29:10.818Z,15.10
2022-12-18T03:33:22.735Z,15.85
2022-12-18T03:37:26.820Z,15.43
2022-12-18T03:46:06.589Z,14.30
2022-12-18T03:50:15.809Z,15.68
2022-12-18T03:54:22.067Z,15.35
2022-12-18T03:58:34.347Z,13.90
2022-12-18T04:02:57.299Z,15.40
2022-12-18T04:07:08.273Z,15.80
2022-12-18T04:11:13.040Z,14.82
2022-12-18T04:15:15.410Z,15.30
2022-12-18T04:19:18.682Z,15.38
2022-12-18T04:23:23.470Z,13.38
2022-12-18T04:27:25.800Z,14.70
2022-12-18T04:31:28.420Z,13.85
2022-12-18T04:35:31.218Z,14.32
2022-12-18T04:43:40.941Z,16.02
2022-12-18T04:51:44.319Z,12.45
2022-12-18T04:55:45.953Z,14.65
2022-12-18T04:59:47.512Z,15.95
2022-12-18T05:03:49.246Z,15.25
2022-12-18T05:07:50.854Z,13.10
2022-12-18T05:11:52.487Z,15.57
2022-12-18T05:15:55.310Z,14.40
2022-12-18T05:19:56.957Z,14.80
2022-12-18T05:23:58.523Z,14.95
2022-12-18T05:28:01.593Z,14.63
2022-12-18T05:32:03.346Z,13.00
2022-12-18T05:36:07.900Z,13.60
2022-12-18T05:40:10.235Z,12.00
2022-12-18T05:44:11.882Z,15.13
2022-12-18T05:48:13.718Z,13.95
2022-12-18T05:52:16.440Z,13.73
2022-12-18T05:56:20.593Z,12.43
2022-12-18T06:00:22.272Z,13.07
2022-12-18T06:04:24.100Z,14.13
2022-12-18T06:08:25.729Z,14.82
2022-12-18T06:12:27.370Z,12.93
2022-12-18T06:16:30.071Z,13.35
2022-12-18T06:20:33.757Z,14.32
2022-12-18T06:24:35.585Z,12.75
2022-12-18T06:28:37.256Z,11.70
2022-12-18T06:32:38.918Z,13.85
2022-12-18T06:36:40.502Z,11.38
2022-12-18T06:40:42.259Z,12.43
2022-12-18T06:44:43.834Z,12.70
2022-12-18T06:48:49.466Z,10.38
2022-12-18T06:52:51.168Z,14.75
2022-12-18T06:56:52.754Z,16.05
2022-12-18T07:00:54.358Z,13.35
2022-12-18T07:04:58.016Z,13.18
2022-12-18T07:08:59.618Z,14.18
2022-12-18T07:13:01.214Z,13.25
2022-12-18T07:17:03.051Z,15.77
2022-12-18T07:25:10.478Z,12.18
2022-12-18T07:29:12.164Z,13.00
2022-12-18T07:33:13.798Z,13.23
2022-12-18T07:37:15.402Z,13.02
2022-12-18T07:41:17.440Z,14.57
2022-12-18T07:45:19.017Z,14.13
2022-12-18T07:49:20.726Z,15.00
2022-12-18T07:53:22.335Z,15.73
2022-12-18T07:57:49.009Z,14.23
2022-12-18T08:01:45.825Z,13.30
2022-12-18T08:05:51.521Z,12.18
2022-12-18T08:09:53.039Z,17.00
2022-12-18T08:13:55.311Z,13.73
2022-12-18T08:21:59.512Z,12.90
2022-12-18T08:26:01.106Z,13.25
2022-12-18T08:30:04.041Z,14.38
2022-12-18T08:34:05.893Z,17.00
2022-12-18T08:38:08.276Z,13.98
2022-12-18T08:42:29.436Z,15.10
2022-12-18T08:46:37.217Z,15.27
2022-12-18T08:50:38.989Z,14.30
2022-12-18T08:54:40.668Z,15.82
2022-12-18T08:58:43.578Z,15.25
2022-12-18T09:02:55.502Z,19.02
2022-12-18T09:06:57.190Z,18.92
2022-12-18T09:10:59.081Z,17.50
2022-12-18T09:15:00.660Z,18.35
2022-12-18T09:19:04.866Z,18.77
2022-12-18T09:23:07.249Z,20.13
2022-12-18T09:27:08.892Z,18.80
2022-12-18T09:31:16.614Z,16.98
2022-12-18T09:35:18.240Z,18.15
2022-12-18T09:39:20.111Z,17.13
2022-12-18T09:43:30.580Z,17.83
2022-12-18T09:47:37.477Z,17.20
2022-12-18T09:52:05.043Z,17.45
2022-12-18T09:56:11.851Z,17.10
2022-12-18T10:00:20.997Z,17.23
2022-12-18T10:04:22.763Z,16.90
2022-12-18T10:08:43.108Z,18.40
2022-12-18T10:13:04.859Z,16.77
2022-12-18T10:17:45.003Z,16.20
2022-12-18T10:22:12.538Z,16.77
2022-12-18T10:26:14.206Z,17.50
2022-12-18T10:30:23.565Z,18.52
2022-12-18T10:34:25.395Z,19.70
2022-12-18T10:38:32.850Z,17.40
2022-12-18T10:42:34.706Z,16.85
2022-12-18T10:46:36.410Z,16.90
2022-12-18T10:51:09.704Z,13.37
2022-12-18T10:55:04.543Z,16.85
2022-12-18T10:59:11.311Z,19.50
2022-12-18T11:03:40.364Z,18.67
2022-12-18T11:07:51.132Z,17.77
2022-12-18T11:11:55.460Z,18.55
2022-12-18T11:15:57.924Z,17.50
2022-12-18T11:20:02.259Z,16.98
2022-12-18T11:24:04.072Z,17.23
2022-12-18T11:28:26.772Z,17.73
2022-12-18T11:32:37.100Z,16.02
2022-12-18T11:36:45.612Z,17.08
2022-12-18T11:40:57.299Z,16.70
2022-12-18T11:45:04.478Z,16.35
2022-12-18T11:49:37.791Z,16.02
2022-12-18T11:53:41.048Z,18.20
2022-12-18T11:57:54.033Z,16.45
2022-12-18T12:02:21.123Z,17.00
2022-12-18T12:06:48.490Z,17.33
2022-12-18T12:10:56.556Z,16.73
2022-12-18T12:15:14.268Z,17.42
2022-12-18T12:19:35.208Z,18.13
2022-12-18T12:23:58.319Z,17.25
2022-12-18T12:28:10.601Z,16.35
2022-12-18T12:32:15.296Z,15.70
2022-12-18T12:36:30.668Z,16.40
2022-12-18T12:40:58.750Z,16.92
2022-12-18T12:45:01.720Z,17.77
2022-12-18T12:49:05.744Z,16.85
2022-12-18T12:53:10.669Z,19.23
2022-12-18T12:57:31.949Z,21.05
2022-12-18T13:01:49.433Z,19.25
2022-12-18T13:05:54.017Z,22.67
2022-12-18T13:10:23.650Z,21.40
2022-12-18T13:14:38.918Z,19.45
2022-12-18T13:18:50.381Z,20.60
2022-12-18T13:22:52.459Z,20.88
2022-12-18T13:26:55.074Z,19.80
2022-12-18T13:35:29.410Z,16.27
2022-12-18T13:39:35.497Z,16.58
2022-12-18T13:43:48.374Z,17.08
2022-12-18T13:47:51.001Z,15.43
2022-12-18T13:51:56.272Z,15.35
2022-12-18T13:55:58.477Z,15.18
2022-12-18T14:00:24.440Z,15.18
2022-12-18T14:04:31.298Z,14.20
2022-12-18T14:08:44.883Z,15.65
2022-12-18T14:13:00.972Z,15.63
2022-12-18T14:17:11.300Z,14.40
2022-12-18T14:21:24.267Z,14.57
2022-12-18T14:29:30.859Z,13.20
2022-12-18T14:33:32.430Z,15.13
2022-12-18T14:37:34.024Z,15.82
2022-12-18T14:41:35.806Z,15.05
2022-12-18T14:45:42.291Z,15.30
2022-12-18T14:49:45.748Z,13.65
2022-12-18T14:53:54.382Z,15.17
2022-12-18T14:57:57.954Z,13.93
2022-12-18T15:02:18.067Z,14.25
2022-12-18T15:06:28.670Z,14.23
2022-12-18T15:10:33.954Z,15.63
2022-12-18T15:14:39.552Z,15.07
2022-12-18T15:18:46.161Z,14.85
2022-12-18T15:22:48.501Z,17.48
2022-12-18T15:26:50.206Z,22.52
2022-12-18T15:31:10.926Z,21.90
2022-12-18T15:35:12.501Z,21.10
2022-12-18T15:39:14.447Z,21.42
2022-12-18T15:43:34.718Z,23.45
2022-12-18T15:47:36.335Z,22.88
2022-12-18T15:51:39.303Z,17.57
2022-12-18T15:56:01.295Z,23.50
2022-12-18T16:00:03.308Z,23.38
2022-12-18T16:04:06.624Z,21.42
2022-12-18T16:08:08.214Z,21.40
2022-12-18T16:12:20.439Z,20.00
2022-12-18T16:16:22.120Z,22.40
2022-12-18T16:20:24.812Z,21.83
2022-12-18T16:24:29.271Z,25.35
2022-12-18T16:28:30.897Z,23.90
2022-12-18T16:32:33.975Z,20.65
2022-12-18T16:36:35.486Z,20.88
2022-12-18T16:40:59.004Z,19.33
2022-12-18T16:45:00.632Z,15.63
2022-12-18T16:49:02.362Z,15.73
2022-12-18T16:53:04.025Z,13.60
2022-12-18T16:57:05.665Z,17.70
2022-12-18T17:01:11.419Z,14.90
2022-12-18T17:05:13.025Z,15.70
2022-12-18T17:09:16.536Z,15.52
2022-12-18T17:13:21.425Z,15.27
2022-12-18T17:17:27.209Z,14.95
2022-12-18T17:21:29.163Z,14.40
2022-12-18T17:25:30.735Z,15.07
2022-12-18T17:29:32.419Z,14.48
2022-12-18T17:33:34.036Z,13.07
2022-12-18T17:37:36.870Z,15.90
2022-12-18T17:41:38.538Z,13.93
2022-12-18T17:45:40.669Z,15.35
2022-12-18T17:49:42.340Z,14.77
2022-12-18T17:53:44.955Z,15.23
2022-12-18T17:57:46.831Z,16.05
2022-12-18T18:01:48.860Z,16.75
2022-12-18T18:05:58.900Z,16.35
2022-12-18T18:10:00.451Z,18.02
2022-12-18T18:14:02.474Z,15.50
2022-12-18T18:18:04.111Z,18.88
2022-12-18T18:22:25.088Z,14.25
2022-12-18T18:26:29.271Z,21.60
2022-12-18T18:30:31.752Z,31.48
2022-12-18T18:34:33.549Z,49.50
2022-12-18T18:38:35.129Z,42.42
2022-12-18T18:42:36.754Z,21.90
2022-12-18T18:46:38.348Z,19.77
2022-12-18T18:50:40.216Z,20.10
2022-12-18T18:55:03.595Z,19.60
2022-12-18T18:59:03.754Z,18.92
2022-12-18T19:03:05.566Z,19.38
2022-12-18T19:07:07.649Z,19.17
2022-12-18T19:11:33.161Z,16.77
2022-12-18T19:15:37.905Z,17.13
2022-12-18T19:19:40.320Z,16.45
2022-12-18T19:23:42.168Z,19.63
2022-12-18T19:27:43.982Z,17.77
2022-12-18T19:31:45.745Z,19.63
2022-12-18T19:35:49.051Z,21.08
2022-12-18T19:43:52.848Z,20.90
2022-12-18T19:47:58.559Z,21.13
2022-12-18T19:52:04.665Z,22.00
2022-12-18T19:56:11.403Z,21.17
2022-12-18T20:00:18.630Z,21.00
2022-12-18T20:04:20.638Z,21.73
2022-12-18T20:08:22.719Z,22.65
2022-12-18T20:12:24.474Z,20.38
2022-12-18T20:16:26.373Z,21.42
2022-12-18T20:20:28.595Z,21.50
2022-12-18T20:24:30.319Z,21.57
2022-12-18T20:28:31.967Z,21.77
2022-12-18T20:32:37.038Z,20.58
2022-12-18T20:36:39.828Z,19.52
2022-12-18T20:40:42.686Z,20.48
2022-12-18T20:44:45.749Z,20.67
2022-12-18T20:48:48.207Z,20.02
2022-12-18T20:52:49.831Z,19.70
2022-12-18T20:56:51.715Z,15.88
2022-12-18T21:01:08.281Z,23.07
2022-12-18T21:05:09.907Z,22.63
2022-12-18T21:09:12.212Z,16.05
2022-12-18T21:13:13.868Z,22.30
2022-12-18T21:17:16.156Z,22.73
2022-12-18T21:21:21.862Z,23.07
2022-12-18T21:25:29.728Z,22.77
2022-12-18T21:29:31.540Z,23.75
2022-12-18T21:33:33.147Z,25.73
2022-12-18T21:37:34.751Z,22.35
2022-12-18T21:41:55.426Z,17.15
2022-12-18T21:45:58.043Z,23.27
2022-12-18T21:50:01.375Z,22.80
2022-12-18T21:54:03.821Z,20.00
2022-12-18T21:58:05.362Z,21.67
2022-12-18T22:02:19.704Z,22.63
2022-12-18T22:06:22.449Z,22.95
2022-12-18T22:10:24.019Z,23.33
2022-12-18T22:14:25.876Z,15.73
2022-12-18T22:18:27.585Z,22.47
2022-12-18T22:22:29.348Z,20.60
2022-12-18T22:26:39.529Z,22.92
2022-12-18T22:30:41.908Z,23.40
2022-12-18T22:34:43.590Z,24.30
2022-12-18T22:38:46.839Z,23.17
2022-12-18T22:42:50.585Z,23.25
2022-12-18T22:47:05.502Z,22.67
2022-12-18T22:51:15.659Z,23.67
2022-12-18T22:55:17.475Z,21.27
2022-12-18T22:59:20.840Z,21.25
2022-12-18T23:03:22.466Z,18.27
2022-12-18T23:07:24.108Z,18.17
2022-12-18T23:11:26.645Z,18.60
2022-12-18T23:15:28.723Z,17.90
2022-12-18T23:19:30.431Z,17.83
2022-12-18T23:23:36.758Z,18.17
2022-12-18T23:27:38.320Z,17.73
2022-12-18T23:31:40.130Z,17.45
2022-12-18T23:35:41.719Z,18.47
2022-12-18T23:39:43.406Z,18.58
2022-12-18T23:43:45.043Z,17.33
2022-12-18T23:47:51.188Z,17.42
2022-12-18T23:51:55.165Z,19.73
2022-12-18T23:55:56.695Z,19.75
2022-12-18T23:59:59.686Z,19.27
